createdAt,value
2019-05-15T00:00:13.655Z,3.70
2019-05-15T00:02:43.343Z,4.07
2019-05-15T00:05:13.129Z,3.50
2019-05-15T00:07:42.866Z,3.77
2019-05-15T00:10:12.838Z,4.00
2019-05-15T00:12:42.778Z,4.10
2019-05-15T00:15:14.239Z,3.10
2019-05-15T00:17:44.228Z,3.47
2019-05-15T00:20:14.065Z,3.87
2019-05-15T00:22:43.751Z,3.80
2019-05-15T00:25:13.950Z,3.37
2019-05-15T00:27:43.704Z,3.80
2019-05-15T00:30:13.708Z,3.80
2019-05-15T00:32:43.803Z,4.40
2019-05-15T00:35:13.727Z,3.90
2019-05-15T00:37:43.660Z,3.70
2019-05-15T00:40:13.658Z,4.10
2019-05-15T00:42:43.604Z,3.77
2019-05-15T00:45:13.748Z,4.00
2019-05-15T00:47:43.895Z,3.97
2019-05-15T00:50:13.723Z,3.70
2019-05-15T00:52:43.302Z,4.17
2019-05-15T00:55:13.723Z,3.73
2019-05-15T00:57:43.603Z,3.90
2019-05-15T01:00:14.060Z,3.03
2019-05-15T01:02:43.786Z,3.97
2019-05-15T01:05:13.704Z,4.37
2019-05-15T01:07:43.458Z,4.10
2019-05-15T01:10:13.363Z,3.70
2019-05-15T01:12:43.147Z,3.80
2019-05-15T01:15:13.071Z,4.20
2019-05-15T01:17:42.770Z,4.43
2019-05-15T01:20:13.450Z,3.73
2019-05-15T01:22:43.215Z,3.50
2019-05-15T01:25:13.440Z,4.27
2019-05-15T01:27:43.634Z,4.00
2019-05-15T01:30:13.600Z,4.07
2019-05-15T01:32:43.353Z,4.23
2019-05-15T01:35:13.549Z,4.13
2019-05-15T01:37:43.311Z,4.20
2019-05-15T01:40:13.517Z,4.50
2019-05-15T01:42:43.090Z,3.80
2019-05-15T01:45:13.089Z,3.77
2019-05-15T01:47:42.858Z,4.00
2019-05-15T01:50:13.565Z,4.60
2019-05-15T01:52:43.599Z,4.30
2019-05-15T01:55:13.915Z,4.37
2019-05-15T01:57:44.427Z,4.30
2019-05-15T02:00:14.140Z,4.20
2019-05-15T02:02:43.961Z,5.23
2019-05-15T02:05:14.401Z,4.07
2019-05-15T02:07:44.165Z,4.67
2019-05-15T02:10:14.435Z,4.43
2019-05-15T02:12:44.132Z,3.93
2019-05-15T02:15:14.442Z,4.17
2019-05-15T02:17:44.268Z,4.77
2019-05-15T02:20:14.445Z,4.40
2019-05-15T02:22:44.607Z,4.30
2019-05-15T02:25:14.530Z,5.10
2019-05-15T02:27:44.648Z,4.03
2019-05-15T02:30:24.286Z,3.80
2019-05-15T02:32:46.137Z,4.63
2019-05-15T02:35:18.327Z,4.60
2019-05-15T02:37:48.939Z,5.40
2019-05-15T02:40:19.518Z,4.30
2019-05-15T02:42:49.669Z,5.70
2019-05-15T02:45:19.746Z,5.07
2019-05-15T02:47:49.614Z,4.83
2019-05-15T02:50:20.670Z,5.40
2019-05-15T02:52:50.457Z,5.57
2019-05-15T02:55:20.554Z,5.63
2019-05-15T02:57:50.486Z,5.20
2019-05-15T03:00:36.651Z,5.20
2019-05-15T03:02:52.129Z,4.80
2019-05-15T03:05:22.242Z,5.33
2019-05-15T03:07:52.074Z,5.20
2019-05-15T03:10:21.868Z,5.83
2019-05-15T03:12:52.073Z,5.73
2019-05-15T03:15:21.886Z,5.03
2019-05-15T03:17:51.599Z,4.73
2019-05-15T03:20:21.418Z,4.50
2019-05-15T03:23:02.976Z,4.40
2019-05-15T03:25:32.972Z,4.47
2019-05-15T03:28:03.362Z,4.53
2019-05-15T03:31:04.722Z,5.47
2019-05-15T03:33:11.516Z,4.73
2019-05-15T03:35:41.831Z,5.37
2019-05-15T03:38:09.291Z,4.70
2019-05-15T03:40:39.882Z,4.67
2019-05-15T03:43:10.150Z,4.80
2019-05-15T03:45:40.720Z,5.47
2019-05-15T03:48:31.127Z,5.27
2019-05-15T03:51:01.213Z,4.47
2019-05-15T03:53:31.101Z,4.97
2019-05-15T03:56:00.925Z,4.10
2019-05-15T03:58:30.692Z,4.97
2019-05-15T04:01:00.702Z,5.20
2019-05-15T04:03:30.801Z,4.40
2019-05-15T04:06:00.789Z,4.10
2019-05-15T04:08:30.670Z,4.20
2019-05-15T04:11:01.100Z,4.83
2019-05-15T04:13:30.914Z,4.40
2019-05-15T04:16:00.998Z,4.50
2019-05-15T04:18:30.904Z,4.63
2019-05-15T04:21:00.605Z,4.97
2019-05-15T04:23:30.442Z,4.77
2019-05-15T04:26:00.429Z,5.23
2019-05-15T04:28:32.155Z,3.90
2019-05-15T04:31:02.234Z,4.00
2019-05-15T04:33:31.914Z,4.80
2019-05-15T04:36:01.625Z,4.53
2019-05-15T04:38:31.332Z,4.87
2019-05-15T04:41:01.177Z,5.10
2019-05-15T04:43:39.626Z,4.30
2019-05-15T04:46:02.964Z,4.67
2019-05-15T04:48:33.142Z,4.57
2019-05-15T04:51:02.979Z,4.73
2019-05-15T04:53:33.078Z,4.23
2019-05-15T04:56:03.214Z,4.47
2019-05-15T04:58:33.000Z,5.37
2019-05-15T05:01:03.285Z,4.73
2019-05-15T05:03:34.553Z,5.10
2019-05-15T05:06:05.068Z,4.53
2019-05-15T05:08:35.901Z,5.47
2019-05-15T05:11:05.784Z,4.77
2019-05-15T05:23:33.342Z,5.90
2019-05-15T05:26:03.680Z,4.57
2019-05-15T05:28:34.112Z,5.43
2019-05-15T05:31:04.081Z,4.93
2019-05-15T05:33:34.512Z,4.27
2019-05-15T05:36:04.676Z,5.27
2019-05-15T05:38:34.625Z,4.67
2019-05-15T05:41:04.379Z,4.10
2019-05-15T05:43:34.292Z,4.27
2019-05-15T05:46:04.029Z,3.90
2019-05-15T05:48:44.830Z,3.23
2019-05-15T05:51:14.624Z,2.83
2019-05-15T05:53:44.564Z,2.70
2019-05-15T05:56:14.517Z,3.10
2019-05-15T05:58:44.799Z,2.60
2019-05-15T06:01:14.680Z,2.50
2019-05-15T06:03:45.234Z,2.60
2019-05-15T06:06:15.300Z,3.17
2019-05-15T06:08:47.817Z,2.70
2019-05-15T06:11:18.438Z,2.50
2019-05-15T06:13:52.332Z,2.13
2019-05-15T06:16:20.278Z,2.20
2019-05-15T06:18:49.978Z,1.70
2019-05-15T06:21:19.692Z,1.57
2019-05-15T06:23:55.749Z,1.50
2019-05-15T06:26:20.970Z,1.67
2019-05-15T08:16:18.600Z,1.00
2019-05-15T08:18:48.882Z,1.00
2019-05-15T08:21:18.848Z,1.20
2019-05-15T08:23:48.679Z,0.93
2019-05-15T08:26:18.540Z,1.07
2019-05-15T08:28:48.771Z,1.70
2019-05-15T08:31:18.694Z,1.05
2019-05-15T08:36:18.462Z,1.00
2019-05-15T08:38:48.762Z,1.30
2019-05-15T08:41:18.948Z,1.10
2019-05-15T08:48:49.258Z,0.93
2019-05-15T08:51:19.418Z,1.05
2019-05-15T08:53:49.476Z,1.00
2019-05-15T08:56:19.667Z,0.80
2019-05-15T09:26:19.754Z,1.00
2019-05-15T09:33:49.543Z,1.10
2019-05-15T09:36:20.163Z,1.13
2019-05-15T09:38:50.611Z,1.33
2019-05-15T09:41:20.681Z,1.63
2019-05-15T09:43:50.405Z,1.60
2019-05-15T09:46:20.448Z,1.80
2019-05-15T09:48:51.823Z,1.90
2019-05-15T09:51:21.635Z,2.00
2019-05-15T09:53:51.671Z,1.93
2019-05-15T09:56:21.512Z,1.90
2019-05-15T09:58:51.235Z,1.60
2019-05-15T10:01:21.186Z,1.90
2019-05-15T10:03:50.971Z,1.80
2019-05-15T10:06:20.877Z,1.87
2019-05-15T10:08:50.789Z,1.80
2019-05-15T10:11:20.648Z,1.87
2019-05-15T10:13:50.420Z,1.80
2019-05-15T10:16:20.442Z,1.90
2019-05-15T10:18:51.088Z,2.03
2019-05-15T10:21:21.339Z,1.73
2019-05-15T10:23:51.313Z,2.33
2019-05-15T10:26:21.454Z,2.20
2019-05-15T10:28:51.376Z,1.80
2019-05-15T10:31:21.376Z,2.20
2019-05-15T10:33:51.503Z,1.83
2019-05-15T10:36:21.851Z,2.27
2019-05-15T10:38:51.936Z,2.43
2019-05-15T10:41:21.953Z,2.10
2019-05-15T10:43:56.517Z,2.23
2019-05-15T10:46:23.635Z,2.63
2019-05-15T10:48:53.337Z,2.10
2019-05-15T10:51:22.990Z,2.07
2019-05-15T10:53:52.762Z,1.80
2019-05-15T10:56:22.748Z,1.90
2019-05-15T10:58:52.549Z,2.20
2019-05-15T11:01:22.402Z,2.50
2019-05-15T11:03:52.673Z,2.20
2019-05-15T11:06:22.618Z,3.13
2019-05-15T11:08:52.718Z,2.30
2019-05-15T11:11:22.620Z,2.73
2019-05-15T11:13:52.441Z,2.03
2019-05-15T11:16:22.356Z,2.33
2019-05-15T11:18:53.617Z,2.33
2019-05-15T11:21:23.567Z,2.30
2019-05-15T11:23:53.223Z,2.33
2019-05-15T11:26:22.967Z,2.10
2019-05-15T11:28:53.106Z,1.83
2019-05-15T11:31:24.816Z,1.97
2019-05-15T11:33:54.470Z,2.17
2019-05-15T11:36:24.305Z,2.17
2019-05-15T11:38:54.391Z,2.13
2019-05-15T11:41:24.174Z,1.93
2019-05-15T11:43:53.953Z,2.30
2019-05-15T11:46:25.802Z,2.50
2019-05-15T11:48:55.461Z,2.60
2019-05-15T11:51:25.343Z,1.90
2019-05-15T11:53:54.970Z,2.00
2019-05-15T11:56:25.280Z,2.83
2019-05-15T11:58:55.453Z,2.37
2019-05-15T12:01:25.517Z,2.03
2019-05-15T12:03:55.388Z,2.07
2019-05-15T12:06:25.108Z,2.03
2019-05-15T12:08:54.938Z,2.40
2019-05-15T12:11:33.503Z,2.37
2019-05-15T12:13:56.942Z,2.00
2019-05-15T12:16:29.047Z,2.00
2019-05-15T12:19:08.403Z,2.00
2019-05-15T12:21:29.999Z,1.80
2019-05-15T12:24:00.186Z,1.90
2019-05-15T12:26:30.266Z,1.90
2019-05-15T12:29:00.100Z,1.80
2019-05-15T12:31:29.852Z,2.33
2019-05-15T12:33:59.818Z,2.20
2019-05-15T12:36:51.369Z,1.87
2019-05-15T12:39:09.524Z,1.93
2019-05-15T13:01:45.639Z,2.43
2019-05-15T13:04:15.460Z,2.10
2019-05-15T13:06:53.124Z,1.80
2019-05-15T13:09:16.515Z,2.03
2019-05-15T13:11:48.415Z,1.70
2019-05-15T13:14:18.856Z,1.90
2019-05-15T13:16:48.645Z,2.03
2019-05-15T13:19:19.026Z,1.80
2019-05-15T13:21:51.231Z,2.10
2019-05-15T13:24:21.193Z,1.50
2019-05-15T13:26:51.348Z,2.40
2019-05-15T13:29:21.172Z,1.70
2019-05-15T13:31:51.154Z,1.70
2019-05-15T13:34:21.287Z,2.47
2019-05-15T13:36:51.001Z,2.10
2019-05-15T13:39:20.716Z,2.30
2019-05-15T13:41:50.681Z,2.03
2019-05-15T13:44:20.327Z,1.90
2019-05-15T13:46:50.786Z,2.67
2019-05-15T13:49:20.549Z,2.17
2019-05-15T13:51:50.285Z,3.00
2019-05-15T13:54:20.251Z,2.00
2019-05-15T13:56:50.677Z,2.20
2019-05-15T13:59:20.703Z,2.27
2019-05-15T14:01:50.449Z,1.93
2019-05-15T14:04:20.321Z,2.30
2019-05-15T14:06:50.772Z,2.50
2019-05-15T14:09:20.568Z,2.17
2019-05-15T14:11:50.486Z,1.87
2019-05-15T14:14:20.587Z,2.20
2019-05-15T14:16:50.379Z,2.13
2019-05-15T14:19:20.538Z,2.17
2019-05-15T14:21:50.890Z,1.80
2019-05-15T14:24:21.287Z,1.60
2019-05-15T14:26:51.088Z,2.00
2019-05-15T14:29:21.650Z,2.17
2019-05-15T14:31:51.861Z,2.00
2019-05-15T14:34:21.520Z,1.77
2019-05-15T14:36:53.916Z,1.70
2019-05-15T14:39:23.723Z,1.70
2019-05-15T14:41:53.678Z,1.50
2019-05-15T14:44:23.461Z,2.20
2019-05-15T14:46:53.659Z,1.77
2019-05-15T14:49:23.620Z,2.00
2019-05-15T14:52:07.647Z,2.00
2019-05-15T14:54:25.260Z,2.27
2019-05-15T14:56:55.177Z,1.53
2019-05-15T14:59:25.114Z,2.23
2019-05-15T15:01:55.181Z,1.80
2019-05-15T15:04:25.582Z,1.80
2019-05-15T15:06:57.891Z,1.90
2019-05-15T15:09:28.223Z,2.70
2019-05-15T15:11:57.973Z,2.00
2019-05-15T15:14:28.481Z,1.90
2019-05-15T15:16:58.469Z,1.83
2019-05-15T15:19:29.372Z,1.87
2019-05-15T15:21:59.205Z,2.40
2019-05-15T15:24:29.074Z,2.13
2019-05-15T15:26:59.139Z,1.60
2019-05-15T15:29:29.015Z,2.20
2019-05-15T15:31:59.199Z,2.00
2019-05-15T15:34:29.342Z,1.97
2019-05-15T15:36:59.438Z,2.17
2019-05-15T15:39:29.430Z,1.77
2019-05-15T15:41:59.254Z,1.70
2019-05-15T15:44:29.529Z,2.50
2019-05-15T15:46:59.596Z,1.87
2019-05-15T15:49:29.416Z,1.83
2019-05-15T15:51:59.099Z,2.03
2019-05-15T15:54:29.452Z,2.00
2019-05-15T15:56:59.864Z,2.10
2019-05-15T15:59:30.388Z,1.70
2019-05-15T16:02:00.155Z,1.80
2019-05-15T16:04:30.118Z,2.37
2019-05-15T16:06:59.811Z,3.13
2019-05-15T16:09:29.635Z,1.97
2019-05-15T16:11:59.789Z,2.50
2019-05-15T16:14:30.483Z,2.07
2019-05-15T16:17:00.575Z,2.23
2019-05-15T16:19:30.404Z,2.60
2019-05-15T16:22:00.165Z,1.90
2019-05-15T16:24:29.926Z,2.23
2019-05-15T16:27:00.934Z,2.40
2019-05-15T16:29:30.770Z,2.27
2019-05-15T16:32:00.549Z,2.20
2019-05-15T16:34:31.015Z,1.70
2019-05-15T16:37:01.129Z,1.70
2019-05-15T16:39:31.331Z,1.93
2019-05-15T16:42:01.127Z,2.50
2019-05-15T16:44:30.795Z,1.80
2019-05-15T16:47:00.941Z,1.90
2019-05-15T16:49:31.219Z,2.10
2019-05-15T16:52:01.011Z,2.60
2019-05-15T16:54:30.865Z,1.90
2019-05-15T16:57:00.645Z,1.90
2019-05-15T16:59:35.741Z,2.07
2019-05-15T17:02:01.891Z,2.10
2019-05-15T17:04:31.995Z,2.07
2019-05-15T17:07:01.662Z,2.00
2019-05-15T17:09:32.080Z,1.70
2019-05-15T17:12:02.503Z,1.80
2019-05-15T17:14:32.286Z,1.97
2019-05-15T17:17:02.007Z,2.13
2019-05-15T17:19:33.058Z,2.20
2019-05-15T17:22:02.870Z,2.23
2019-05-15T17:24:33.009Z,2.80
2019-05-15T17:27:03.030Z,2.20
2019-05-15T17:29:32.790Z,2.07
2019-05-15T17:32:02.528Z,2.50
2019-05-15T17:34:32.707Z,1.87
2019-05-15T17:37:02.649Z,2.30
2019-05-15T17:39:36.525Z,1.87
2019-05-15T17:42:03.783Z,1.70
2019-05-15T17:44:33.424Z,2.27
2019-05-15T17:47:03.231Z,1.80
2019-05-15T17:49:33.192Z,2.17
2019-05-15T17:52:03.165Z,2.60
2019-05-15T17:54:33.191Z,2.27
2019-05-15T17:57:03.093Z,2.20
2019-05-15T17:59:33.262Z,2.27
2019-05-15T18:02:03.228Z,2.10
2019-05-15T18:04:32.912Z,2.60
2019-05-15T18:07:02.743Z,2.00
2019-05-15T18:09:32.944Z,2.20
2019-05-15T18:12:02.802Z,2.20
2019-05-15T18:14:33.163Z,1.80
2019-05-15T18:17:03.336Z,1.73
2019-05-15T18:19:33.403Z,2.00
2019-05-15T18:22:03.129Z,2.27
2019-05-15T18:24:32.816Z,1.90
2019-05-15T18:27:02.974Z,2.50
2019-05-15T18:29:32.669Z,1.70
2019-05-15T18:32:02.397Z,2.40
2019-05-15T18:34:32.388Z,1.97
2019-05-15T18:37:02.397Z,2.20
2019-05-15T18:39:32.470Z,1.90
2019-05-15T18:42:02.850Z,2.27
2019-05-15T18:44:32.934Z,2.13
2019-05-15T18:47:03.099Z,1.90
2019-05-15T18:49:33.194Z,2.13
2019-05-15T18:52:02.920Z,2.50
2019-05-15T18:54:32.728Z,2.00
2019-05-15T18:57:02.737Z,2.20
2019-05-15T18:59:33.221Z,2.30
2019-05-15T19:02:03.275Z,2.87
2019-05-15T19:04:33.000Z,2.73
2019-05-15T19:07:02.809Z,2.30
2019-05-15T19:09:32.823Z,2.83
2019-05-15T19:12:03.081Z,2.37
2019-05-15T19:14:36.030Z,2.33
2019-05-15T19:17:05.019Z,2.67
2019-05-15T19:19:34.821Z,2.20
2019-05-15T19:22:05.246Z,2.40
2019-05-15T19:24:35.171Z,2.47
2019-05-15T19:27:05.061Z,3.07
2019-05-15T19:29:37.691Z,2.70
2019-05-15T19:32:10.903Z,3.23
2019-05-15T19:34:40.220Z,5.90
2019-05-15T19:37:11.401Z,7.10
2019-05-15T19:39:41.538Z,6.63
2019-05-15T19:42:11.677Z,5.70
2019-05-15T19:44:42.508Z,4.53
2019-05-15T19:47:13.055Z,3.90
2019-05-15T19:49:43.183Z,3.80
2019-05-15T19:52:13.604Z,3.47
2019-05-15T19:54:43.601Z,3.13
2019-05-15T19:57:13.633Z,2.63
2019-05-15T19:59:43.572Z,2.97
2019-05-15T20:02:14.639Z,2.30
2019-05-15T20:04:45.137Z,2.50
2019-05-15T20:07:15.695Z,2.20
2019-05-15T20:09:47.707Z,1.90
2019-05-15T20:12:18.566Z,2.17
2019-05-15T20:14:49.128Z,2.63
2019-05-15T20:17:18.845Z,2.13
2019-05-15T20:19:48.884Z,2.57
2019-05-15T20:22:19.411Z,2.60
2019-05-15T20:24:49.453Z,2.60
2019-05-15T20:27:19.124Z,2.40
2019-05-15T20:30:08.600Z,3.00
2019-05-15T20:32:39.643Z,2.63
2019-05-15T20:35:10.692Z,2.53
2019-05-15T20:37:41.633Z,2.57
2019-05-15T20:40:12.508Z,3.33
2019-05-15T20:42:43.238Z,2.10
2019-05-15T20:45:13.939Z,3.07
2019-05-15T20:47:44.751Z,2.40
2019-05-15T20:50:14.651Z,2.77
2019-05-15T20:52:44.292Z,1.93
2019-05-15T20:55:14.712Z,2.40
2019-05-15T20:57:47.409Z,2.60
2019-05-15T21:00:19.157Z,2.20
2019-05-15T21:02:49.184Z,2.60
2019-05-15T21:05:19.325Z,2.50
2019-05-15T21:07:49.511Z,3.27
2019-05-15T21:10:21.300Z,2.77
2019-05-15T21:12:51.065Z,2.40
2019-05-15T21:15:21.699Z,2.30
2019-05-15T21:17:58.415Z,2.67
2019-05-15T21:20:23.402Z,2.20
2019-05-15T21:22:53.091Z,2.40
2019-05-15T21:25:23.398Z,2.30
2019-05-15T21:27:53.127Z,2.30
2019-05-15T21:30:23.164Z,2.80
2019-05-15T21:32:52.774Z,2.63
2019-05-15T21:35:22.975Z,2.57
2019-05-15T21:37:52.780Z,2.63
2019-05-15T21:40:22.726Z,2.67
2019-05-15T21:42:52.588Z,2.70
2019-05-15T21:45:22.442Z,3.43
2019-05-15T21:47:52.414Z,2.67
2019-05-15T21:50:22.149Z,2.93
2019-05-15T21:52:52.151Z,3.47
2019-05-15T21:55:22.495Z,3.10
2019-05-15T21:57:53.005Z,3.20
2019-05-15T22:00:30.729Z,2.73
2019-05-15T22:03:01.011Z,3.20
2019-05-15T22:05:31.839Z,3.37
2019-05-15T22:08:01.947Z,2.87
2019-05-15T22:10:31.940Z,2.67
2019-05-15T22:13:03.162Z,3.20
2019-05-15T22:15:33.558Z,2.67
2019-05-15T22:18:03.572Z,2.50
2019-05-15T22:20:33.417Z,2.97
2019-05-15T22:23:03.585Z,2.77
2019-05-15T22:25:33.437Z,3.20
2019-05-15T22:28:03.415Z,2.80
2019-05-15T22:30:33.244Z,2.40
2019-05-15T22:33:03.055Z,2.80
2019-05-15T22:35:32.904Z,3.30
2019-05-15T22:38:02.714Z,3.13
2019-05-15T22:40:32.699Z,3.10
2019-05-15T22:43:02.841Z,3.80
2019-05-15T22:45:32.630Z,2.80
2019-05-15T22:48:02.627Z,3.07
2019-05-15T22:50:51.736Z,3.33
2019-05-15T22:53:21.591Z,3.37
2019-05-15T22:55:51.645Z,2.50
2019-05-15T22:58:21.718Z,2.60
2019-05-15T23:00:51.759Z,2.40
2019-05-15T23:03:21.868Z,2.50
2019-05-15T23:05:51.601Z,2.93
2019-05-15T23:08:21.710Z,2.33
2019-05-15T23:10:51.389Z,2.53
2019-05-15T23:13:21.028Z,2.40
2019-05-15T23:15:51.095Z,2.37
2019-05-15T23:18:20.857Z,2.73
2019-05-15T23:20:52.507Z,2.40
2019-05-15T23:23:22.292Z,2.37
2019-05-15T23:25:52.466Z,2.33
2019-05-15T23:28:22.517Z,2.70
2019-05-15T23:30:52.388Z,2.27
2019-05-15T23:33:22.086Z,2.20
2019-05-15T23:35:51.867Z,2.50
2019-05-15T23:38:21.926Z,3.03
2019-05-15T23:40:52.027Z,2.23
2019-05-15T23:43:21.829Z,2.10
2019-05-15T23:45:51.498Z,2.30
2019-05-15T23:48:21.251Z,2.67
2019-05-15T23:50:51.928Z,2.40
2019-05-15T23:53:21.661Z,2.50
2019-05-15T23:55:51.292Z,2.23
2019-05-15T23:58:21.536Z,1.90
